createdAt,value
2022-11-19T00:02:01.344Z,3.92
2022-11-19T00:04:29.172Z,3.70
2022-11-19T00:06:56.942Z,3.63
2022-11-19T00:09:24.677Z,3.85
2022-11-19T00:12:11.551Z,3.42
2022-11-19T00:14:39.767Z,4.00
2022-11-19T00:17:07.689Z,3.60
2022-11-19T00:19:35.401Z,4.57
2022-11-19T00:22:03.025Z,5.63
2022-11-19T00:24:30.729Z,4.60
2022-11-19T00:26:58.745Z,3.63
2022-11-19T00:29:26.368Z,4.55
2022-11-19T00:31:53.925Z,3.42
2022-11-19T00:34:21.710Z,4.30
2022-11-19T00:36:50.941Z,3.58
2022-11-19T00:39:19.431Z,4.18
2022-11-19T00:41:47.443Z,3.80
2022-11-19T00:44:15.060Z,4.85
2022-11-19T00:46:43.262Z,3.85
2022-11-19T00:49:11.683Z,3.17
2022-11-19T00:51:39.521Z,2.90
2022-11-19T00:54:07.337Z,2.65
2022-11-19T00:56:35.311Z,3.90
2022-11-19T00:59:04.288Z,2.88
2022-11-19T01:01:45.007Z,3.65
2022-11-19T01:04:20.636Z,3.25
2022-11-19T01:06:50.971Z,3.28
2022-11-19T01:09:21.881Z,2.72
2022-11-19T01:11:58.038Z,4.15
2022-11-19T01:14:28.408Z,3.28
2022-11-19T01:17:04.160Z,4.18
2022-11-19T01:19:38.586Z,3.38
2022-11-19T01:22:12.667Z,3.25
2022-11-19T01:24:41.103Z,2.53
2022-11-19T01:27:08.701Z,2.88
2022-11-19T01:29:36.779Z,3.88
2022-11-19T01:32:08.040Z,3.25
2022-11-19T01:34:46.110Z,3.05
2022-11-19T01:37:14.340Z,2.92
2022-11-19T01:39:41.919Z,2.85
2022-11-19T01:42:48.110Z,3.10
2022-11-19T01:45:31.826Z,3.35
2022-11-19T01:48:30.425Z,3.30
2022-11-19T01:51:29.786Z,3.63
2022-11-19T01:54:01.816Z,2.75
2022-11-19T01:56:30.693Z,2.78
2022-11-19T01:59:07.366Z,2.67
2022-11-19T02:01:35.184Z,4.88
2022-11-19T02:04:04.643Z,2.80
2022-11-19T02:06:34.376Z,3.03
2022-11-19T02:09:02.195Z,2.83
2022-11-19T02:11:44.579Z,2.60
2022-11-19T02:14:18.423Z,2.83
2022-11-19T02:17:02.207Z,3.15
2022-11-19T02:20:03.115Z,3.00
2022-11-19T02:22:31.179Z,2.97
2022-11-19T02:25:24.626Z,3.45
2022-11-19T02:28:13.855Z,4.25
2022-11-19T02:30:49.782Z,3.25
2022-11-19T02:33:29.593Z,3.92
2022-11-19T02:36:20.456Z,2.50
2022-11-19T02:38:59.425Z,3.15
2022-11-19T02:41:36.054Z,4.10
2022-11-19T02:44:35.938Z,3.75
2022-11-19T02:47:08.196Z,2.90
2022-11-19T02:49:41.387Z,4.75
2022-11-19T02:52:09.768Z,3.95
2022-11-19T02:54:37.825Z,3.60
2022-11-19T02:57:05.640Z,3.33
2022-11-19T03:00:17.117Z,3.40
2022-11-19T03:03:13.311Z,3.35
2022-11-19T03:05:48.659Z,3.00
2022-11-19T03:08:16.942Z,3.38
2022-11-19T03:11:12.853Z,3.03
2022-11-19T03:14:47.927Z,2.97
2022-11-19T03:18:04.321Z,3.33
2022-11-19T03:20:43.659Z,3.40
2022-11-19T03:23:19.189Z,3.05
2022-11-19T03:26:13.086Z,3.50
2022-11-19T03:28:44.355Z,3.55
2022-11-19T03:31:13.556Z,3.63
2022-11-19T03:33:53.041Z,3.58
2022-11-19T03:36:26.521Z,3.63
2022-11-19T03:39:12.775Z,4.05
2022-11-19T03:41:41.970Z,3.50
2022-11-19T03:44:35.766Z,3.55
2022-11-19T03:47:11.609Z,3.25
2022-11-19T03:49:43.008Z,3.30
2022-11-19T03:52:17.648Z,3.58
2022-11-19T03:54:45.706Z,3.10
2022-11-19T03:57:17.167Z,3.97
2022-11-19T03:59:45.229Z,3.95
2022-11-19T04:02:14.684Z,4.38
2022-11-19T04:04:42.564Z,3.70
2022-11-19T04:07:16.002Z,3.75
2022-11-19T04:09:43.960Z,2.97
2022-11-19T04:12:16.845Z,4.70
2022-11-19T04:14:45.322Z,3.03
2022-11-19T04:17:13.715Z,3.30
2022-11-19T04:19:41.184Z,3.13
2022-11-19T04:22:09.540Z,3.50
2022-11-19T04:24:37.519Z,3.63
2022-11-19T04:27:05.526Z,3.33
2022-11-19T04:29:33.503Z,3.50
2022-11-19T04:32:01.052Z,3.33
2022-11-19T04:34:28.731Z,2.72
2022-11-19T04:36:56.351Z,2.50
2022-11-19T04:39:23.984Z,4.03
2022-11-19T04:41:51.615Z,2.75
2022-11-19T04:44:19.270Z,2.95
2022-11-19T04:46:46.913Z,3.33
2022-11-19T04:49:14.641Z,3.15
2022-11-19T04:51:42.196Z,4.32
2022-11-19T04:54:10.009Z,3.15
2022-11-19T04:56:37.722Z,3.38
2022-11-19T04:59:05.798Z,3.40
2022-11-19T05:01:33.477Z,3.25
2022-11-19T05:04:01.598Z,2.75
2022-11-19T05:06:29.525Z,2.95
2022-11-19T05:08:56.994Z,2.53
2022-11-19T05:11:24.657Z,3.05
2022-11-19T05:13:52.727Z,3.08
2022-11-19T05:16:20.672Z,2.30
2022-11-19T05:18:48.171Z,3.35
2022-11-19T05:21:16.206Z,2.88
2022-11-19T05:23:44.063Z,3.13
2022-11-19T05:26:11.625Z,2.92
2022-11-19T05:28:40.147Z,2.75
2022-11-19T05:31:09.294Z,3.53
2022-11-19T05:33:36.958Z,2.58
2022-11-19T05:36:04.881Z,3.47
2022-11-19T05:38:32.478Z,2.70
2022-11-19T05:41:11.245Z,3.72
2022-11-19T05:43:40.357Z,3.00
2022-11-19T05:46:08.118Z,3.47
2022-11-19T05:48:35.798Z,2.80
2022-11-19T05:51:03.873Z,4.57
2022-11-19T05:53:31.757Z,2.95
2022-11-19T05:55:59.681Z,3.13
2022-11-19T05:58:27.824Z,3.20
2022-11-19T06:00:59.381Z,2.60
2022-11-19T06:03:27.440Z,3.67
2022-11-19T06:05:55.124Z,3.60
2022-11-19T06:08:23.122Z,2.60
2022-11-19T06:10:54.134Z,2.58
2022-11-19T06:13:21.777Z,3.00
2022-11-19T06:15:49.844Z,2.80
2022-11-19T06:18:17.693Z,2.88
2022-11-19T06:20:46.267Z,2.42
2022-11-19T06:23:14.410Z,2.13
2022-11-19T06:25:41.964Z,2.88
2022-11-19T06:28:09.630Z,3.03
2022-11-19T06:30:37.750Z,3.60
2022-11-19T06:33:05.209Z,2.92
2022-11-19T06:35:32.858Z,2.33
2022-11-19T06:38:00.974Z,3.15
2022-11-19T06:40:28.914Z,2.45
2022-11-19T06:42:56.592Z,2.10
2022-11-19T06:45:24.345Z,2.65
2022-11-19T06:47:51.921Z,2.58
2022-11-19T06:50:19.945Z,3.00
2022-11-19T06:52:47.565Z,2.30
2022-11-19T06:55:15.633Z,2.80
2022-11-19T06:57:43.203Z,4.22
2022-11-19T07:00:12.362Z,2.63
2022-11-19T07:02:41.146Z,2.63
2022-11-19T07:05:08.992Z,2.95
2022-11-19T07:07:36.796Z,2.95
2022-11-19T07:10:04.651Z,2.38
2022-11-19T07:12:32.296Z,3.05
2022-11-19T07:15:03.933Z,2.45
2022-11-19T07:17:34.887Z,3.42
2022-11-19T07:20:02.458Z,2.80
2022-11-19T07:22:30.325Z,3.88
2022-11-19T07:24:58.016Z,2.40
2022-11-19T07:27:25.861Z,4.97
2022-11-19T07:30:13.079Z,2.85
2022-11-19T07:32:45.152Z,4.53
2022-11-19T07:35:13.104Z,2.35
2022-11-19T07:37:53.372Z,2.60
2022-11-19T07:40:30.542Z,3.60
2022-11-19T07:43:02.045Z,2.33
2022-11-19T07:45:34.970Z,3.08
2022-11-19T07:48:02.759Z,2.03
2022-11-19T07:50:32.531Z,4.03
2022-11-19T07:53:00.600Z,2.80
2022-11-19T07:55:28.295Z,2.13
2022-11-19T07:58:05.881Z,2.85
2022-11-19T08:00:33.780Z,3.00
2022-11-19T08:03:02.675Z,3.60
2022-11-19T08:05:30.707Z,2.55
2022-11-19T08:07:58.277Z,2.55
2022-11-19T08:10:31.422Z,2.60
2022-11-19T08:13:05.154Z,2.70
2022-11-19T08:15:37.841Z,2.83
2022-11-19T08:18:16.403Z,2.28
2022-11-19T08:20:48.823Z,2.88
2022-11-19T08:23:16.411Z,2.58
2022-11-19T08:25:44.804Z,3.05
2022-11-19T08:28:12.970Z,2.00
2022-11-19T08:30:41.849Z,2.85
2022-11-19T08:33:09.835Z,2.60
2022-11-19T08:35:40.838Z,2.65
2022-11-19T08:38:20.830Z,2.60
2022-11-19T08:40:55.010Z,2.90
2022-11-19T08:43:22.785Z,3.08
2022-11-19T08:45:54.456Z,3.17
2022-11-19T08:48:22.616Z,2.95
2022-11-19T08:50:50.715Z,3.00
2022-11-19T08:53:18.882Z,2.58
2022-11-19T08:55:51.767Z,2.70
2022-11-19T08:58:22.738Z,2.40
2022-11-19T09:00:51.578Z,3.45
2022-11-19T09:03:21.781Z,4.53
2022-11-19T09:05:49.965Z,3.45
2022-11-19T09:08:17.624Z,4.00
2022-11-19T09:10:45.423Z,2.53
2022-11-19T09:13:13.266Z,4.50
2022-11-19T09:15:41.097Z,4.15
2022-11-19T09:18:09.109Z,3.45
2022-11-19T09:20:36.799Z,2.83
2022-11-19T09:23:04.516Z,3.38
2022-11-19T09:25:33.451Z,2.78
2022-11-19T09:28:01.307Z,3.40
2022-11-19T09:30:28.926Z,2.10
2022-11-19T09:33:00.056Z,2.60
2022-11-19T09:35:27.663Z,2.78
2022-11-19T09:37:55.715Z,2.65
2022-11-19T09:40:25.877Z,2.90
2022-11-19T09:43:20.150Z,3.25
2022-11-19T09:45:57.746Z,2.72
2022-11-19T09:48:37.486Z,4.95
2022-11-19T09:51:08.975Z,2.53
2022-11-19T09:53:53.924Z,3.00
2022-11-19T09:56:41.678Z,3.45
2022-11-19T09:59:20.634Z,2.40
2022-11-19T10:01:48.280Z,3.78
2022-11-19T10:04:22.354Z,2.70
2022-11-19T10:06:59.461Z,2.17
2022-11-19T10:10:06.483Z,2.70
2022-11-19T10:12:37.193Z,4.15
2022-11-19T10:15:30.924Z,3.00
2022-11-19T10:18:17.448Z,2.58
2022-11-19T10:21:11.048Z,2.90
2022-11-19T10:23:50.183Z,3.42
2022-11-19T10:26:23.001Z,3.25
2022-11-19T10:29:00.569Z,2.80
2022-11-19T10:31:43.620Z,3.53
2022-11-19T10:34:15.850Z,2.70
2022-11-19T10:37:08.607Z,2.85
2022-11-19T10:39:40.577Z,4.53
2022-11-19T10:42:31.660Z,3.83
2022-11-19T10:45:05.118Z,3.35
2022-11-19T10:47:41.041Z,2.90
2022-11-19T10:50:20.859Z,5.88
2022-11-19T10:53:00.911Z,5.30
2022-11-19T10:55:30.232Z,3.45
2022-11-19T10:58:29.624Z,2.28
2022-11-19T11:01:03.268Z,2.95
2022-11-19T11:03:37.125Z,3.72
2022-11-19T11:06:07.580Z,2.95
2022-11-19T11:08:48.749Z,2.28
2022-11-19T11:11:25.049Z,2.22
2022-11-19T11:14:28.375Z,2.97
2022-11-19T11:16:56.840Z,2.85
2022-11-19T11:19:25.284Z,3.22
2022-11-19T11:21:54.806Z,2.47
2022-11-19T11:24:30.459Z,3.22
2022-11-19T11:27:22.793Z,3.45
2022-11-19T11:30:15.617Z,3.50
2022-11-19T11:32:43.938Z,2.70
2022-11-19T11:35:34.005Z,2.22
2022-11-19T11:38:03.182Z,4.22
2022-11-19T11:40:31.597Z,2.63
2022-11-19T11:42:59.488Z,2.63
2022-11-19T11:45:36.344Z,2.72
2022-11-19T11:48:08.932Z,2.85
2022-11-19T11:50:37.447Z,2.50
2022-11-19T11:53:09.619Z,3.33
2022-11-19T11:55:38.816Z,3.25
2022-11-19T11:58:25.316Z,3.13
2022-11-19T12:01:15.405Z,2.70
2022-11-19T12:06:26.551Z,2.92
2022-11-19T12:09:20.652Z,2.20
2022-11-19T12:12:14.804Z,2.72
2022-11-19T12:15:00.078Z,2.00
2022-11-19T12:17:48.586Z,3.33
2022-11-19T12:20:31.053Z,2.60
2022-11-19T12:23:15.646Z,2.80
2022-11-19T12:26:30.525Z,2.35
2022-11-19T12:29:16.122Z,2.90
2022-11-19T12:32:01.990Z,3.03
2022-11-19T12:35:00.090Z,4.05
2022-11-19T12:37:54.848Z,3.08
2022-11-19T12:40:53.278Z,2.80
2022-11-19T12:43:51.523Z,2.80
2022-11-19T12:46:40.492Z,2.47
2022-11-19T12:49:20.237Z,2.60
2022-11-19T12:52:12.515Z,4.80
2022-11-19T12:54:53.859Z,3.05
2022-11-19T12:57:30.482Z,2.05
2022-11-19T13:00:15.133Z,2.92
2022-11-19T13:03:00.570Z,2.45
2022-11-19T13:05:40.555Z,1.77
2022-11-19T13:08:20.363Z,2.17
2022-11-19T13:11:21.982Z,1.98
2022-11-19T13:13:59.546Z,2.15
2022-11-19T13:16:31.626Z,2.70
2022-11-19T13:19:15.625Z,2.60
2022-11-19T13:22:15.955Z,2.28
2022-11-19T13:24:58.047Z,2.30
2022-11-19T13:27:29.232Z,2.58
2022-11-19T13:30:06.417Z,3.33
2022-11-19T13:32:59.247Z,2.70
2022-11-19T13:35:38.204Z,2.45
2022-11-19T13:38:19.694Z,3.10
2022-11-19T13:40:59.596Z,2.25
2022-11-19T13:43:50.857Z,2.22
2022-11-19T13:47:06.836Z,1.90
2022-11-19T13:49:48.952Z,2.63
2022-11-19T13:52:28.908Z,2.10
2022-11-19T13:55:00.912Z,2.05
2022-11-19T13:57:37.953Z,2.88
2022-11-19T14:00:30.180Z,2.58
2022-11-19T14:03:50.833Z,3.00
2022-11-19T14:06:32.897Z,2.15
2022-11-19T14:09:34.948Z,2.80
2022-11-19T14:12:46.078Z,2.45
2022-11-19T14:15:38.476Z,1.77
2022-11-19T14:18:24.872Z,2.28
2022-11-19T14:21:11.277Z,2.53
2022-11-19T14:24:07.950Z,1.95
2022-11-19T14:26:42.245Z,2.60
2022-11-19T14:29:19.450Z,1.80
2022-11-19T14:32:08.052Z,2.53
2022-11-19T14:34:59.360Z,2.33
2022-11-19T14:37:41.604Z,2.47
2022-11-19T14:40:21.603Z,2.17
2022-11-19T14:43:21.316Z,3.20
2022-11-19T14:46:08.773Z,2.50
2022-11-19T14:48:39.247Z,2.10
2022-11-19T14:51:16.902Z,2.28
2022-11-19T14:53:52.836Z,2.95
2022-11-19T14:56:23.635Z,4.45
2022-11-19T14:59:11.380Z,3.10
2022-11-19T15:01:57.949Z,2.33
2022-11-19T15:04:45.345Z,3.13
2022-11-19T15:07:19.868Z,2.67
2022-11-19T15:10:33.938Z,3.92
2022-11-19T15:13:24.031Z,2.55
2022-11-19T15:15:55.877Z,2.90
2022-11-19T15:18:42.056Z,2.72
2022-11-19T15:21:45.785Z,3.00
2022-11-19T15:24:13.921Z,2.67
2022-11-19T15:27:00.072Z,2.63
2022-11-19T15:29:46.359Z,3.15
2022-11-19T15:32:20.799Z,2.85
2022-11-19T15:35:10.331Z,2.92
2022-11-19T15:38:02.032Z,4.80
2022-11-19T15:40:34.172Z,3.17
2022-11-19T15:43:40.383Z,4.03
2022-11-19T15:46:17.971Z,2.90
2022-11-19T15:48:57.176Z,3.72
2022-11-19T15:51:25.281Z,3.30
2022-11-19T15:54:05.203Z,4.65
2022-11-19T15:56:40.648Z,4.07
2022-11-19T15:59:09.029Z,7.20
2022-11-19T16:01:37.312Z,4.25
2022-11-19T16:04:08.976Z,4.95
2022-11-19T16:06:42.800Z,4.68
2022-11-19T16:09:19.264Z,3.75
2022-11-19T16:12:05.900Z,5.45
2022-11-19T16:14:52.259Z,4.82
2022-11-19T16:17:43.544Z,3.75
2022-11-19T16:20:30.420Z,6.45
2022-11-19T16:23:11.678Z,6.00
2022-11-19T16:25:40.589Z,4.03
2022-11-19T16:28:18.539Z,3.75
2022-11-19T16:30:48.604Z,5.97
2022-11-19T16:33:24.431Z,5.07
2022-11-19T16:36:09.887Z,5.50
2022-11-19T16:38:40.492Z,4.45
2022-11-19T16:44:03.128Z,4.70
2022-11-19T16:46:37.342Z,4.90
2022-11-19T16:49:13.096Z,4.40
2022-11-19T16:51:55.188Z,4.65
2022-11-19T16:54:50.844Z,6.43
2022-11-19T16:57:21.979Z,5.65
2022-11-19T16:59:54.495Z,5.45
2022-11-19T17:02:28.424Z,5.57
2022-11-19T17:05:07.797Z,5.13
2022-11-19T17:07:36.668Z,4.88
2022-11-19T17:10:31.489Z,4.97
2022-11-19T17:13:15.009Z,8.30
2022-11-19T17:15:43.819Z,5.68
2022-11-19T17:18:21.239Z,5.13
2022-11-19T17:20:58.036Z,5.78
2022-11-19T17:23:47.457Z,6.47
2022-11-19T17:26:21.200Z,5.72
2022-11-19T17:29:07.954Z,6.63
2022-11-19T17:31:36.038Z,6.63
2022-11-19T17:34:19.426Z,6.88
2022-11-19T17:36:47.843Z,5.72
2022-11-19T17:42:13.800Z,5.75
2022-11-19T17:44:42.333Z,5.30
2022-11-19T17:47:21.294Z,5.55
2022-11-19T17:49:50.544Z,6.60
2022-11-19T17:52:26.518Z,6.88
2022-11-19T17:54:58.130Z,7.93
2022-11-19T17:57:25.853Z,7.57
2022-11-19T17:59:53.558Z,6.55
2022-11-19T18:02:21.277Z,7.40
2022-11-19T18:04:49.712Z,7.10
2022-11-19T18:07:17.356Z,7.25
2022-11-19T18:09:45.280Z,9.00
2022-11-19T18:12:19.146Z,8.57
2022-11-19T18:14:47.109Z,9.50
2022-11-19T18:17:15.946Z,8.77
2022-11-19T18:19:43.865Z,8.73
2022-11-19T18:22:20.049Z,9.05
2022-11-19T18:24:49.565Z,9.93
2022-11-19T18:27:17.557Z,8.77
2022-11-19T18:29:45.327Z,10.10
2022-11-19T18:32:15.974Z,10.25
2022-11-19T18:37:12.754Z,11.25
2022-11-19T18:39:40.555Z,10.93
2022-11-19T18:42:12.027Z,11.13
2022-11-19T18:44:41.865Z,9.90
2022-11-19T18:47:12.921Z,9.10
2022-11-19T18:49:41.095Z,8.23
2022-11-19T18:52:11.742Z,9.05
2022-11-19T18:57:11.167Z,9.05
2022-11-19T18:59:41.776Z,7.43
2022-11-19T19:02:11.175Z,7.53
2022-11-19T19:04:39.002Z,7.68
2022-11-19T19:07:07.297Z,8.02
2022-11-19T19:09:43.564Z,8.73
2022-11-19T19:12:21.592Z,10.32
2022-11-19T19:14:51.829Z,9.07
2022-11-19T19:19:50.780Z,8.75
2022-11-19T19:22:18.622Z,9.20
2022-11-19T19:24:46.974Z,10.90
2022-11-19T19:27:15.389Z,9.95
2022-11-19T19:29:43.134Z,11.02
2022-11-19T19:32:11.390Z,10.70
2022-11-19T19:34:39.401Z,11.00
2022-11-19T19:37:09.540Z,10.80
2022-11-19T19:39:42.366Z,10.82
2022-11-19T19:42:10.240Z,11.13
2022-11-19T19:44:39.213Z,10.77
2022-11-19T19:47:09.364Z,10.20
2022-11-19T19:49:39.000Z,10.70
2022-11-19T19:52:07.251Z,11.98
2022-11-19T19:54:40.450Z,12.93
2022-11-19T19:57:15.754Z,14.18
2022-11-19T19:59:43.634Z,12.32
2022-11-19T20:02:15.358Z,11.07
2022-11-19T20:04:44.846Z,11.90
2022-11-19T20:07:12.939Z,11.35
2022-11-19T20:09:40.997Z,11.13
2022-11-19T20:12:08.898Z,12.07
2022-11-19T20:14:36.996Z,12.48
2022-11-19T20:17:08.481Z,11.77
2022-11-19T20:19:36.325Z,11.02
2022-11-19T20:22:04.169Z,13.10
2022-11-19T20:24:32.071Z,10.77
2022-11-19T20:26:59.896Z,13.35
2022-11-19T20:29:28.472Z,12.93
2022-11-19T20:31:56.431Z,12.57
2022-11-19T20:34:29.813Z,13.02
2022-11-19T20:37:00.515Z,10.80
2022-11-19T20:39:32.166Z,11.77
2022-11-19T20:42:18.431Z,13.52
2022-11-19T20:44:46.224Z,11.27
2022-11-19T20:47:17.014Z,11.13
2022-11-19T20:49:44.718Z,11.70
2022-11-19T20:52:13.481Z,11.00
2022-11-19T20:54:41.977Z,11.13
2022-11-19T20:57:09.648Z,12.10
2022-11-19T20:59:37.320Z,10.70
2022-11-19T21:02:05.561Z,13.45
2022-11-19T21:04:36.589Z,11.63
2022-11-19T21:07:04.957Z,11.75
2022-11-19T21:09:32.624Z,11.75
2022-11-19T21:12:00.224Z,13.27
2022-11-19T21:14:28.378Z,12.35
2022-11-19T21:16:56.159Z,13.18
2022-11-19T21:19:24.179Z,12.95
2022-11-19T21:21:52.077Z,12.55
2022-11-19T21:24:19.801Z,13.20
2022-11-19T21:26:49.904Z,14.85
2022-11-19T21:29:17.847Z,14.68
2022-11-19T21:31:48.082Z,15.75
2022-11-19T21:34:22.768Z,14.57
2022-11-19T21:36:51.043Z,14.80
2022-11-19T21:39:22.037Z,15.80
2022-11-19T21:41:52.159Z,15.90
2022-11-19T21:44:22.996Z,15.82
2022-11-19T21:46:51.136Z,17.15
2022-11-19T21:49:19.771Z,15.65
2022-11-19T21:51:49.188Z,14.80
2022-11-19T21:54:17.344Z,14.73
2022-11-19T21:56:45.351Z,15.25
2022-11-19T21:59:13.422Z,16.45
2022-11-19T22:01:41.243Z,17.00
2022-11-19T22:04:09.142Z,15.90
2022-11-19T22:06:36.849Z,16.48
2022-11-19T22:09:04.713Z,15.35
2022-11-19T22:11:32.563Z,15.77
2022-11-19T22:14:05.950Z,16.52
2022-11-19T22:16:36.380Z,15.85
2022-11-19T22:19:05.864Z,16.40
2022-11-19T22:21:34.152Z,15.95
2022-11-19T22:24:02.148Z,17.63
2022-11-19T22:26:32.241Z,16.42
2022-11-19T22:28:59.851Z,17.02
2022-11-19T22:31:27.514Z,16.83
2022-11-19T22:33:55.631Z,17.23
2022-11-19T22:36:23.848Z,14.20
2022-11-19T22:38:52.392Z,15.23
2022-11-19T22:41:21.675Z,15.70
2022-11-19T22:43:50.269Z,13.20
2022-11-19T22:46:18.546Z,12.32
2022-11-19T22:48:46.365Z,12.85
2022-11-19T22:51:20.292Z,11.95
2022-11-19T22:53:49.678Z,13.32
2022-11-19T22:56:23.845Z,12.68
2022-11-19T22:58:52.844Z,13.05
2022-11-19T23:01:32.303Z,12.25
2022-11-19T23:04:02.840Z,10.95
2022-11-19T23:08:58.192Z,13.27
2022-11-19T23:11:44.590Z,12.00
2022-11-19T23:14:15.714Z,12.65
2022-11-19T23:16:44.118Z,10.35
2022-11-19T23:19:13.858Z,11.23
2022-11-19T23:21:41.853Z,11.97
2022-11-19T23:24:10.500Z,13.52
2022-11-19T23:26:38.304Z,11.23
2022-11-19T23:29:06.754Z,12.18
2022-11-19T23:31:37.331Z,11.43
2022-11-19T23:34:05.219Z,11.63
2022-11-19T23:36:42.596Z,12.15
2022-11-19T23:39:15.545Z,13.02
2022-11-19T23:41:44.141Z,12.10
2022-11-19T23:44:12.071Z,11.38
2022-11-19T23:46:40.141Z,13.10
2022-11-19T23:49:07.734Z,8.30
2022-11-19T23:51:37.522Z,10.52
2022-11-19T23:54:06.123Z,10.17
2022-11-19T23:56:35.934Z,8.20
2022-11-19T23:59:05.069Z,8.05
